sensor_id;sensor_type;location;lat;lon;timestamp;temperature;humidity
49777;DHT22;35673;51.482;7.436;2022-11-15T00:01:47;11.20;99.90
49777;DHT22;35673;51.482;7.436;2022-11-15T00:04:13;11.20;99.90
49777;DHT22;35673;51.482;7.436;2022-11-15T00:06:38;11.20;99.90
49777;DHT22;35673;51.482;7.436;2022-11-15T00:09:04;11.20;99.90
49777;DHT22;35673;51.482;7.436;2022-11-15T00:11:29;11.20;99.90
49777;DHT22;35673;51.482;7.436;2022-11-15T00:13:56;11.20;99.90
49777;DHT22;35673;51.482;7.436;2022-11-15T00:16:22;11.30;99.90
49777;DHT22;35673;51.482;7.436;2022-11-15T00:18:48;11.30;99.90
49777;DHT22;35673;51.482;7.436;2022-11-15T00:21:14;11.30;99.90
49777;DHT22;35673;51.482;7.436;2022-11-15T00:23:40;11.30;99.90
49777;DHT22;35673;51.482;7.436;2022-11-15T00:26:07;11.40;99.90
49777;DHT22;35673;51.482;7.436;2022-11-15T00:28:35;11.40;99.90
49777;DHT22;35673;51.482;7.436;2022-11-15T00:31:06;11.50;99.90
49777;DHT22;35673;51.482;7.436;2022-11-15T00:33:34;11.50;99.90
49777;DHT22;35673;51.482;7.436;2022-11-15T00:36:04;11.60;99.90
49777;DHT22;35673;51.482;7.436;2022-11-15T00:38:31;11.70;99.90
49777;DHT22;35673;51.482;7.436;2022-11-15T00:40:58;11.70;99.90
49777;DHT22;35673;51.482;7.436;2022-11-15T00:43:23;11.80;99.90
49777;DHT22;35673;51.482;7.436;2022-11-15T00:45:49;11.80;99.90
49777;DHT22;35673;51.482;7.436;2022-11-15T00:48:14;11.80;99.90
49777;DHT22;35673;51.482;7.436;2022-11-15T00:50:40;11.90;99.90
49777;DHT22;35673;51.482;7.436;2022-11-15T00:53:05;11.90;99.90
49777;DHT22;35673;51.482;7.436;2022-11-15T00:55:31;12.00;99.90
49777;DHT22;35673;51.482;7.436;2022-11-15T00:57:56;12.00;99.90
49777;DHT22;35673;51.482;7.436;2022-11-15T01:00:22;12.00;99.90
49777;DHT22;35673;51.482;7.436;2022-11-15T01:02:48;12.00;99.90
49777;DHT22;35673;51.482;7.436;2022-11-15T01:05:13;12.00;99.90
49777;DHT22;35673;51.482;7.436;2022-11-15T01:07:39;12.10;99.90
49777;DHT22;35673;51.482;7.436;2022-11-15T01:10:05;12.10;99.90
49777;DHT22;35673;51.482;7.436;2022-11-15T01:12:31;12.10;99.90
49777;DHT22;35673;51.482;7.436;2022-11-15T01:14:57;12.10;99.90
49777;DHT22;35673;51.482;7.436;2022-11-15T01:17:22;12.10;99.90
49777;DHT22;35673;51.482;7.436;2022-11-15T01:19:48;12.20;99.90
49777;DHT22;35673;51.482;7.436;2022-11-15T01:22:14;12.30;99.90
49777;DHT22;35673;51.482;7.436;2022-11-15T01:24:40;12.30;99.90
49777;DHT22;35673;51.482;7.436;2022-11-15T01:27:05;12.30;99.90
49777;DHT22;35673;51.482;7.436;2022-11-15T01:29:31;12.30;99.90
49777;DHT22;35673;51.482;7.436;2022-11-15T01:31:57;12.30;99.90
49777;DHT22;35673;51.482;7.436;2022-11-15T01:34:23;12.40;99.90
49777;DHT22;35673;51.482;7.436;2022-11-15T01:36:48;12.40;99.90
49777;DHT22;35673;51.482;7.436;2022-11-15T01:39:14;12.40;99.90
49777;DHT22;35673;51.482;7.436;2022-11-15T01:41:40;12.40;99.90
49777;DHT22;35673;51.482;7.436;2022-11-15T01:44:47;12.40;99.90
49777;DHT22;35673;51.482;7.436;2022-11-15T01:47:24;12.40;99.90
49777;DHT22;35673;51.482;7.436;2022-11-15T01:50:00;12.40;99.90
49777;DHT22;35673;51.482;7.436;2022-11-15T01:52:28;12.50;99.90
49777;DHT22;35673;51.482;7.436;2022-11-15T01:55:08;12.50;99.90
49777;DHT22;35673;51.482;7.436;2022-11-15T01:57:34;12.50;99.90
49777;DHT22;35673;51.482;7.436;2022-11-15T02:00:02;12.50;99.90
49777;DHT22;35673;51.482;7.436;2022-11-15T02:02:28;12.50;99.90
49777;DHT22;35673;51.482;7.436;2022-11-15T02:04:54;12.50;99.90
49777;DHT22;35673;51.482;7.436;2022-11-15T02:07:21;12.50;99.90
49777;DHT22;35673;51.482;7.436;2022-11-15T02:09:48;12.50;99.90
49777;DHT22;35673;51.482;7.436;2022-11-15T02:12:18;12.50;99.90
49777;DHT22;35673;51.482;7.436;2022-11-15T02:14:47;12.50;99.90
49777;DHT22;35673;51.482;7.436;2022-11-15T02:17:31;12.50;99.90
49777;DHT22;35673;51.482;7.436;2022-11-15T02:25:31;12.50;99.90
49777;DHT22;35673;51.482;7.436;2022-11-15T02:36:07;12.60;99.90
49777;DHT22;35673;51.482;7.436;2022-11-15T02:41:15;12.60;99.90
49777;DHT22;35673;51.482;7.436;2022-11-15T02:43:49;12.60;99.90
49777;DHT22;35673;51.482;7.436;2022-11-15T02:46:39;12.60;99.90
49777;DHT22;35673;51.482;7.436;2022-11-15T02:49:30;12.60;99.90
49777;DHT22;35673;51.482;7.436;2022-11-15T02:51:57;12.50;99.90
49777;DHT22;35673;51.482;7.436;2022-11-15T02:54:25;12.50;99.90
49777;DHT22;35673;51.482;7.436;2022-11-15T02:56:53;12.50;99.90
49777;DHT22;35673;51.482;7.436;2022-11-15T02:59:44;12.50;99.90
49777;DHT22;35673;51.482;7.436;2022-11-15T03:02:36;12.50;99.90
49777;DHT22;35673;51.482;7.436;2022-11-15T03:11:09;12.50;99.90
49777;DHT22;35673;51.482;7.436;2022-11-15T03:16:16;12.50;99.90
49777;DHT22;35673;51.482;7.436;2022-11-15T03:18:55;12.50;99.90
49777;DHT22;35673;51.482;7.436;2022-11-15T03:21:23;12.50;99.90
49777;DHT22;35673;51.482;7.436;2022-11-15T03:23:50;12.50;99.90
49777;DHT22;35673;51.482;7.436;2022-11-15T03:26:18;12.60;99.90
49777;DHT22;35673;51.482;7.436;2022-11-15T03:28:52;12.60;99.90
49777;DHT22;35673;51.482;7.436;2022-11-15T03:31:21;12.60;99.90
49777;DHT22;35673;51.482;7.436;2022-11-15T03:34:10;12.60;99.90
49777;DHT22;35673;51.482;7.436;2022-11-15T03:36:38;12.60;99.90
49777;DHT22;35673;51.482;7.436;2022-11-15T03:39:06;12.60;99.90
49777;DHT22;35673;51.482;7.436;2022-11-15T03:44:51;12.60;99.90
49777;DHT22;35673;51.482;7.436;2022-11-15T03:47:29;12.60;99.90
49777;DHT22;35673;51.482;7.436;2022-11-15T03:50:06;12.60;99.90
49777;DHT22;35673;51.482;7.436;2022-11-15T03:52:34;12.60;99.90
49777;DHT22;35673;51.482;7.436;2022-11-15T03:55:01;12.70;99.90
49777;DHT22;35673;51.482;7.436;2022-11-15T03:57:27;12.70;99.90
49777;DHT22;35673;51.482;7.436;2022-11-15T03:59:53;12.70;99.90
49777;DHT22;35673;51.482;7.436;2022-11-15T04:02:19;12.70;99.90
49777;DHT22;35673;51.482;7.436;2022-11-15T04:04:45;12.70;99.90
49777;DHT22;35673;51.482;7.436;2022-11-15T04:07:10;12.70;99.90
49777;DHT22;35673;51.482;7.436;2022-11-15T04:09:36;12.70;99.90
49777;DHT22;35673;51.482;7.436;2022-11-15T04:12:25;12.70;99.90
49777;DHT22;35673;51.482;7.436;2022-11-15T04:15:07;12.70;99.90
49777;DHT22;35673;51.482;7.436;2022-11-15T04:17:54;12.70;99.90
49777;DHT22;35673;51.482;7.436;2022-11-15T04:20:26;12.70;99.90
49777;DHT22;35673;51.482;7.436;2022-11-15T04:23:11;12.70;99.90
49777;DHT22;35673;51.482;7.436;2022-11-15T04:25:57;12.60;99.90
49777;DHT22;35673;51.482;7.436;2022-11-15T04:28:24;12.60;99.90
49777;DHT22;35673;51.482;7.436;2022-11-15T04:30:49;12.60;99.90
49777;DHT22;35673;51.482;7.436;2022-11-15T04:33:15;12.60;99.90
49777;DHT22;35673;51.482;7.436;2022-11-15T04:35:42;12.60;99.90
49777;DHT22;35673;51.482;7.436;2022-11-15T04:38:09;12.60;99.90
49777;DHT22;35673;51.482;7.436;2022-11-15T04:40:36;12.60;99.90
49777;DHT22;35673;51.482;7.436;2022-11-15T04:43:02;12.60;99.90
49777;DHT22;35673;51.482;7.436;2022-11-15T04:45:28;12.70;99.90
49777;DHT22;35673;51.482;7.436;2022-11-15T04:47:53;12.70;99.90
49777;DHT22;35673;51.482;7.436;2022-11-15T04:50:19;12.70;99.90
49777;DHT22;35673;51.482;7.436;2022-11-15T04:52:51;12.70;99.90
49777;DHT22;35673;51.482;7.436;2022-11-15T04:55:17;12.70;99.90
49777;DHT22;35673;51.482;7.436;2022-11-15T04:57:42;12.80;99.90
49777;DHT22;35673;51.482;7.436;2022-11-15T05:00:11;12.80;99.90
49777;DHT22;35673;51.482;7.436;2022-11-15T05:02:37;12.80;99.90
49777;DHT22;35673;51.482;7.436;2022-11-15T05:05:22;12.80;99.90
49777;DHT22;35673;51.482;7.436;2022-11-15T05:07:48;12.80;99.90
49777;DHT22;35673;51.482;7.436;2022-11-15T05:10:14;12.80;99.90
49777;DHT22;35673;51.482;7.436;2022-11-15T05:12:39;12.80;99.90
49777;DHT22;35673;51.482;7.436;2022-11-15T05:15:05;12.80;99.90
49777;DHT22;35673;51.482;7.436;2022-11-15T05:17:31;12.90;99.90
49777;DHT22;35673;51.482;7.436;2022-11-15T05:19:57;12.80;99.90
49777;DHT22;35673;51.482;7.436;2022-11-15T05:22:22;12.80;99.90
49777;DHT22;35673;51.482;7.436;2022-11-15T05:24:48;12.80;99.90
49777;DHT22;35673;51.482;7.436;2022-11-15T05:27:14;12.80;99.90
49777;DHT22;35673;51.482;7.436;2022-11-15T05:29:39;12.80;99.90
49777;DHT22;35673;51.482;7.436;2022-11-15T05:32:06;12.80;99.90
49777;DHT22;35673;51.482;7.436;2022-11-15T05:34:32;12.80;99.90
49777;DHT22;35673;51.482;7.436;2022-11-15T05:36:57;12.80;99.90
49777;DHT22;35673;51.482;7.436;2022-11-15T05:39:24;12.80;99.90
49777;DHT22;35673;51.482;7.436;2022-11-15T05:41:54;12.80;99.90
49777;DHT22;35673;51.482;7.436;2022-11-15T05:44:22;12.90;99.90
49777;DHT22;35673;51.482;7.436;2022-11-15T05:46:50;12.90;99.90
49777;DHT22;35673;51.482;7.436;2022-11-15T05:49:21;12.90;99.90
49777;DHT22;35673;51.482;7.436;2022-11-15T05:51:48;12.90;99.90
49777;DHT22;35673;51.482;7.436;2022-11-15T05:54:16;12.90;99.90
49777;DHT22;35673;51.482;7.436;2022-11-15T05:56:43;12.90;99.90
49777;DHT22;35673;51.482;7.436;2022-11-15T05:59:09;12.90;99.90
49777;DHT22;35673;51.482;7.436;2022-11-15T06:01:36;12.90;99.90
49777;DHT22;35673;51.482;7.436;2022-11-15T06:04:01;12.90;99.90
49777;DHT22;35673;51.482;7.436;2022-11-15T06:06:28;12.90;99.90
49777;DHT22;35673;51.482;7.436;2022-11-15T06:08:54;12.90;99.90
49777;DHT22;35673;51.482;7.436;2022-11-15T06:11:19;12.90;99.90
49777;DHT22;35673;51.482;7.436;2022-11-15T06:13:45;12.90;99.90
49777;DHT22;35673;51.482;7.436;2022-11-15T06:16:10;12.90;99.90
49777;DHT22;35673;51.482;7.436;2022-11-15T06:18:37;12.90;99.90
49777;DHT22;35673;51.482;7.436;2022-11-15T06:21:02;12.90;99.90
49777;DHT22;35673;51.482;7.436;2022-11-15T06:23:33;12.90;99.90
49777;DHT22;35673;51.482;7.436;2022-11-15T06:25:59;12.90;99.90
49777;DHT22;35673;51.482;7.436;2022-11-15T06:28:28;12.90;99.90
49777;DHT22;35673;51.482;7.436;2022-11-15T06:30:54;13.00;99.90
49777;DHT22;35673;51.482;7.436;2022-11-15T06:33:20;13.00;99.90
49777;DHT22;35673;51.482;7.436;2022-11-15T06:35:45;13.00;99.90
49777;DHT22;35673;51.482;7.436;2022-11-15T06:38:11;13.00;99.90
49777;DHT22;35673;51.482;7.436;2022-11-15T06:40:38;13.00;99.90
49777;DHT22;35673;51.482;7.436;2022-11-15T06:43:05;13.00;99.90
49777;DHT22;35673;51.482;7.436;2022-11-15T06:45:31;13.00;99.90
49777;DHT22;35673;51.482;7.436;2022-11-15T06:47:57;13.00;99.90
49777;DHT22;35673;51.482;7.436;2022-11-15T06:50:23;13.00;99.90
49777;DHT22;35673;51.482;7.436;2022-11-15T06:52:49;13.00;99.90
49777;DHT22;35673;51.482;7.436;2022-11-15T06:55:15;13.10;99.90
49777;DHT22;35673;51.482;7.436;2022-11-15T06:57:50;13.10;99.90
49777;DHT22;35673;51.482;7.436;2022-11-15T07:00:18;13.10;99.90
49777;DHT22;35673;51.482;7.436;2022-11-15T07:02:44;13.10;99.90
49777;DHT22;35673;51.482;7.436;2022-11-15T07:05:10;13.10;99.90
49777;DHT22;35673;51.482;7.436;2022-11-15T07:07:36;13.10;99.90
49777;DHT22;35673;51.482;7.436;2022-11-15T07:10:01;13.20;99.90
49777;DHT22;35673;51.482;7.436;2022-11-15T07:12:27;13.10;99.90
49777;DHT22;35673;51.482;7.436;2022-11-15T07:14:52;13.20;99.90
49777;DHT22;35673;51.482;7.436;2022-11-15T07:17:18;13.20;99.90
49777;DHT22;35673;51.482;7.436;2022-11-15T07:19:43;13.20;99.90
49777;DHT22;35673;51.482;7.436;2022-11-15T07:22:09;13.20;99.90
49777;DHT22;35673;51.482;7.436;2022-11-15T07:24:34;13.20;99.90
49777;DHT22;35673;51.482;7.436;2022-11-15T07:27:00;13.20;99.90
49777;DHT22;35673;51.482;7.436;2022-11-15T07:29:25;13.20;99.90
49777;DHT22;35673;51.482;7.436;2022-11-15T07:31:51;13.20;99.90
49777;DHT22;35673;51.482;7.436;2022-11-15T07:34:16;13.20;99.90
49777;DHT22;35673;51.482;7.436;2022-11-15T07:36:42;13.20;99.90
49777;DHT22;35673;51.482;7.436;2022-11-15T07:39:08;13.10;99.90
49777;DHT22;35673;51.482;7.436;2022-11-15T07:41:33;13.10;99.90
49777;DHT22;35673;51.482;7.436;2022-11-15T07:43:59;13.10;99.90
49777;DHT22;35673;51.482;7.436;2022-11-15T07:46:25;13.10;99.90
49777;DHT22;35673;51.482;7.436;2022-11-15T07:48:51;13.00;99.90
49777;DHT22;35673;51.482;7.436;2022-11-15T07:51:16;13.00;99.90
49777;DHT22;35673;51.482;7.436;2022-11-15T07:53:43;13.00;99.90
49777;DHT22;35673;51.482;7.436;2022-11-15T07:56:09;13.00;99.90
49777;DHT22;35673;51.482;7.436;2022-11-15T07:58:35;13.00;99.90
49777;DHT22;35673;51.482;7.436;2022-11-15T08:01:09;13.00;99.90
49777;DHT22;35673;51.482;7.436;2022-11-15T08:03:35;13.00;99.90
49777;DHT22;35673;51.482;7.436;2022-11-15T08:06:01;13.00;99.90
49777;DHT22;35673;51.482;7.436;2022-11-15T08:08:27;13.00;99.90
49777;DHT22;35673;51.482;7.436;2022-11-15T08:10:53;13.10;99.90
49777;DHT22;35673;51.482;7.436;2022-11-15T08:13:19;13.00;99.90
49777;DHT22;35673;51.482;7.436;2022-11-15T08:15:44;13.10;99.90
49777;DHT22;35673;51.482;7.436;2022-11-15T08:18:15;13.10;99.90
49777;DHT22;35673;51.482;7.436;2022-11-15T08:20:42;13.10;99.90
49777;DHT22;35673;51.482;7.436;2022-11-15T08:23:09;13.20;99.90
49777;DHT22;35673;51.482;7.436;2022-11-15T08:25:35;13.30;99.90
49777;DHT22;35673;51.482;7.436;2022-11-15T08:28:04;13.30;99.90
49777;DHT22;35673;51.482;7.436;2022-11-15T08:30:30;13.30;99.90
49777;DHT22;35673;51.482;7.436;2022-11-15T08:32:59;13.40;99.90
49777;DHT22;35673;51.482;7.436;2022-11-15T08:35:25;13.60;99.90
49777;DHT22;35673;51.482;7.436;2022-11-15T08:37:52;13.60;99.90
49777;DHT22;35673;51.482;7.436;2022-11-15T08:40:18;13.80;99.20
49777;DHT22;35673;51.482;7.436;2022-11-15T08:42:46;13.80;98.20
49777;DHT22;35673;51.482;7.436;2022-11-15T08:45:12;13.90;97.70
49777;DHT22;35673;51.482;7.436;2022-11-15T08:47:37;13.90;96.90
49777;DHT22;35673;51.482;7.436;2022-11-15T08:50:03;14.00;96.30
49777;DHT22;35673;51.482;7.436;2022-11-15T08:52:29;14.10;95.40
49777;DHT22;35673;51.482;7.436;2022-11-15T08:54:55;14.20;94.90
49777;DHT22;35673;51.482;7.436;2022-11-15T08:57:20;14.20;94.10
49777;DHT22;35673;51.482;7.436;2022-11-15T08:59:46;14.30;93.50
49777;DHT22;35673;51.482;7.436;2022-11-15T09:02:12;14.30;93.10
49777;DHT22;35673;51.482;7.436;2022-11-15T09:04:42;14.20;93.00
49777;DHT22;35673;51.482;7.436;2022-11-15T09:07:09;14.20;92.90
49777;DHT22;35673;51.482;7.436;2022-11-15T09:09:35;14.20;92.80
49777;DHT22;35673;51.482;7.436;2022-11-15T09:12:00;14.40;92.40
49777;DHT22;35673;51.482;7.436;2022-11-15T09:14:26;14.50;91.90
49777;DHT22;35673;51.482;7.436;2022-11-15T09:16:51;14.50;91.40
49777;DHT22;35673;51.482;7.436;2022-11-15T09:19:17;14.40;91.20
49777;DHT22;35673;51.482;7.436;2022-11-15T09:21:43;14.40;91.20
49777;DHT22;35673;51.482;7.436;2022-11-15T09:24:08;14.40;90.90
49777;DHT22;35673;51.482;7.436;2022-11-15T09:26:34;14.30;90.90
49777;DHT22;35673;51.482;7.436;2022-11-15T09:29:00;14.20;90.80
49777;DHT22;35673;51.482;7.436;2022-11-15T09:31:27;14.20;91.00
49777;DHT22;35673;51.482;7.436;2022-11-15T09:33:52;14.20;90.80
49777;DHT22;35673;51.482;7.436;2022-11-15T09:36:18;14.20;90.20
49777;DHT22;35673;51.482;7.436;2022-11-15T09:38:43;14.20;90.10
49777;DHT22;35673;51.482;7.436;2022-11-15T09:49:00;14.50;87.70
49777;DHT22;35673;51.482;7.436;2022-11-15T09:51:38;14.60;87.30
49777;DHT22;35673;51.482;7.436;2022-11-15T09:54:30;14.70;85.50
49777;DHT22;35673;51.482;7.436;2022-11-15T09:57:04;14.70;85.10
49777;DHT22;35673;51.482;7.436;2022-11-15T09:59:50;14.80;84.30
49777;DHT22;35673;51.482;7.436;2022-11-15T10:04:45;14.80;83.80
49777;DHT22;35673;51.482;7.436;2022-11-15T10:10:14;15.50;81.50
49777;DHT22;35673;51.482;7.436;2022-11-15T10:12:46;15.90;80.20
49777;DHT22;35673;51.482;7.436;2022-11-15T10:15:15;16.20;78.70
49777;DHT22;35673;51.482;7.436;2022-11-15T10:18:05;16.30;77.70
49777;DHT22;35673;51.482;7.436;2022-11-15T10:20:41;16.30;76.30
49777;DHT22;35673;51.482;7.436;2022-11-15T10:23:13;16.20;76.30
49777;DHT22;35673;51.482;7.436;2022-11-15T10:25:39;16.40;76.20
49777;DHT22;35673;51.482;7.436;2022-11-15T10:30:45;16.80;74.60
49777;DHT22;35673;51.482;7.436;2022-11-15T10:35:44;16.60;73.50
49777;DHT22;35673;51.482;7.436;2022-11-15T10:38:11;16.40;74.10
49777;DHT22;35673;51.482;7.436;2022-11-15T10:40:38;16.10;74.30
49777;DHT22;35673;51.482;7.436;2022-11-15T10:45:40;15.60;74.00
49777;DHT22;35673;51.482;7.436;2022-11-15T10:50:37;15.50;74.40
49777;DHT22;35673;51.482;7.436;2022-11-15T10:53:04;15.40;74.40
49777;DHT22;35673;51.482;7.436;2022-11-15T10:55:40;15.40;74.30
49777;DHT22;35673;51.482;7.436;2022-11-15T10:58:34;15.30;74.30
49777;DHT22;35673;51.482;7.436;2022-11-15T11:01:16;15.40;73.90
49777;DHT22;35673;51.482;7.436;2022-11-15T11:03:43;15.50;73.60
49777;DHT22;35673;51.482;7.436;2022-11-15T11:06:17;15.40;74.00
49777;DHT22;35673;51.482;7.436;2022-11-15T11:09:00;15.60;73.80
49777;DHT22;35673;51.482;7.436;2022-11-15T11:11:53;16.10;72.30
49777;DHT22;35673;51.482;7.436;2022-11-15T11:14:24;16.70;70.80
49777;DHT22;35673;51.482;7.436;2022-11-15T11:28:33;17.30;68.60
49777;DHT22;35673;51.482;7.436;2022-11-15T11:31:28;17.40;67.70
49777;DHT22;35673;51.482;7.436;2022-11-15T11:36:50;17.60;67.70
49777;DHT22;35673;51.482;7.436;2022-11-15T11:48:12;16.90;66.00
49777;DHT22;35673;51.482;7.436;2022-11-15T11:50:39;16.90;66.20
49777;DHT22;35673;51.482;7.436;2022-11-15T11:53:25;17.80;65.50
49777;DHT22;35673;51.482;7.436;2022-11-15T11:56:16;17.90;63.10
49777;DHT22;35673;51.482;7.436;2022-11-15T11:58:44;18.20;62.20
49777;DHT22;35673;51.482;7.436;2022-11-15T12:03:50;21.60;57.30
49777;DHT22;35673;51.482;7.436;2022-11-15T12:09:41;21.80;53.90
49777;DHT22;35673;51.482;7.436;2022-11-15T12:12:05;21.90;54.20
49777;DHT22;35673;51.482;7.436;2022-11-15T12:17:01;21.50;53.80
49777;DHT22;35673;51.482;7.436;2022-11-15T12:19:28;21.20;54.20
49777;DHT22;35673;51.482;7.436;2022-11-15T12:24:41;20.50;54.40
49777;DHT22;35673;51.482;7.436;2022-11-15T12:27:26;20.60;53.60
49777;DHT22;35673;51.482;7.436;2022-11-15T12:29:58;20.90;53.20
49777;DHT22;35673;51.482;7.436;2022-11-15T12:32:30;21.30;53.30
49777;DHT22;35673;51.482;7.436;2022-11-15T12:34:57;21.50;52.40
49777;DHT22;35673;51.482;7.436;2022-11-15T12:45:43;21.60;50.60
49777;DHT22;35673;51.482;7.436;2022-11-15T12:58:57;19.60;54.50
49777;DHT22;35673;51.482;7.436;2022-11-15T13:06:48;18.00;58.00
49777;DHT22;35673;51.482;7.436;2022-11-15T13:11:58;17.50;59.10
49777;DHT22;35673;51.482;7.436;2022-11-15T13:17:32;16.90;60.20
49777;DHT22;35673;51.482;7.436;2022-11-15T13:27:49;16.60;62.00
49777;DHT22;35673;51.482;7.436;2022-11-15T13:30:20;16.70;62.10
49777;DHT22;35673;51.482;7.436;2022-11-15T13:32:46;16.70;62.10
49777;DHT22;35673;51.482;7.436;2022-11-15T13:35:29;16.70;62.20
49777;DHT22;35673;51.482;7.436;2022-11-15T13:37:56;16.60;62.50
49777;DHT22;35673;51.482;7.436;2022-11-15T13:40:34;16.60;62.70
49777;DHT22;35673;51.482;7.436;2022-11-15T13:43:23;16.60;62.80
49777;DHT22;35673;51.482;7.436;2022-11-15T13:46:13;16.60;62.70
49777;DHT22;35673;51.482;7.436;2022-11-15T13:48:41;16.60;63.00
49777;DHT22;35673;51.482;7.436;2022-11-15T13:53:38;16.70;62.90
49777;DHT22;35673;51.482;7.436;2022-11-15T13:56:06;16.60;63.10
49777;DHT22;35673;51.482;7.436;2022-11-15T13:58:31;16.40;63.60
49777;DHT22;35673;51.482;7.436;2022-11-15T14:01:02;16.20;64.00
49777;DHT22;35673;51.482;7.436;2022-11-15T14:03:30;16.10;64.50
49777;DHT22;35673;51.482;7.436;2022-11-15T14:09:01;15.90;65.30
49777;DHT22;35673;51.482;7.436;2022-11-15T14:11:27;15.90;65.60
49777;DHT22;35673;51.482;7.436;2022-11-15T14:16:36;15.80;66.10
49777;DHT22;35673;51.482;7.436;2022-11-15T14:19:05;15.80;66.40
49777;DHT22;35673;51.482;7.436;2022-11-15T14:21:34;15.70;66.50
49777;DHT22;35673;51.482;7.436;2022-11-15T14:24:20;15.70;66.80
49777;DHT22;35673;51.482;7.436;2022-11-15T14:26:46;15.60;67.10
49777;DHT22;35673;51.482;7.436;2022-11-15T14:31:48;15.60;67.50
49777;DHT22;35673;51.482;7.436;2022-11-15T14:34:14;15.60;67.60
49777;DHT22;35673;51.482;7.436;2022-11-15T14:36:39;15.60;67.60
49777;DHT22;35673;51.482;7.436;2022-11-15T14:39:08;15.50;67.80
49777;DHT22;35673;51.482;7.436;2022-11-15T14:41:37;15.50;68.00
49777;DHT22;35673;51.482;7.436;2022-11-15T14:44:06;15.40;68.10
49777;DHT22;35673;51.482;7.436;2022-11-15T14:46:32;15.40;68.20
49777;DHT22;35673;51.482;7.436;2022-11-15T14:48:57;15.40;68.40
49777;DHT22;35673;51.482;7.436;2022-11-15T14:51:23;15.50;68.50
49777;DHT22;35673;51.482;7.436;2022-11-15T14:53:49;15.40;68.50
49777;DHT22;35673;51.482;7.436;2022-11-15T14:56:15;15.40;68.60
49777;DHT22;35673;51.482;7.436;2022-11-15T14:58:41;15.40;68.90
49777;DHT22;35673;51.482;7.436;2022-11-15T15:01:26;15.30;69.00
49777;DHT22;35673;51.482;7.436;2022-11-15T15:03:53;15.30;69.00
49777;DHT22;35673;51.482;7.436;2022-11-15T15:06:21;15.20;69.20
49777;DHT22;35673;51.482;7.436;2022-11-15T15:08:48;15.20;69.30
49777;DHT22;35673;51.482;7.436;2022-11-15T15:11:30;15.20;69.50
49777;DHT22;35673;51.482;7.436;2022-11-15T15:13:55;15.20;69.60
49777;DHT22;35673;51.482;7.436;2022-11-15T15:16:26;15.20;69.80
49777;DHT22;35673;51.482;7.436;2022-11-15T15:18:52;15.10;70.00
49777;DHT22;35673;51.482;7.436;2022-11-15T15:21:26;15.00;70.10
49777;DHT22;35673;51.482;7.436;2022-11-15T15:23:56;15.00;70.20
49777;DHT22;35673;51.482;7.436;2022-11-15T15:26:23;15.00;70.30
49777;DHT22;35673;51.482;7.436;2022-11-15T15:28:49;15.00;70.60
49777;DHT22;35673;51.482;7.436;2022-11-15T15:31:16;14.90;70.70
49777;DHT22;35673;51.482;7.436;2022-11-15T15:33:42;14.90;70.90
49777;DHT22;35673;51.482;7.436;2022-11-15T15:36:12;14.90;71.10
49777;DHT22;35673;51.482;7.436;2022-11-15T15:38:38;14.80;71.40
49777;DHT22;35673;51.482;7.436;2022-11-15T15:41:16;14.80;71.60
49777;DHT22;35673;51.482;7.436;2022-11-15T15:43:42;14.80;71.90
49777;DHT22;35673;51.482;7.436;2022-11-15T15:46:10;14.80;72.00
49777;DHT22;35673;51.482;7.436;2022-11-15T15:48:36;14.80;72.90
49777;DHT22;35673;51.482;7.436;2022-11-15T15:51:03;14.70;72.30
49777;DHT22;35673;51.482;7.436;2022-11-15T15:53:29;14.70;72.70
49777;DHT22;35673;51.482;7.436;2022-11-15T15:55:55;14.70;73.00
49777;DHT22;35673;51.482;7.436;2022-11-15T15:58:21;14.70;73.10
49777;DHT22;35673;51.482;7.436;2022-11-15T16:00:47;14.70;73.30
49777;DHT22;35673;51.482;7.436;2022-11-15T16:03:12;14.60;74.10
49777;DHT22;35673;51.482;7.436;2022-11-15T16:05:38;14.60;73.60
49777;DHT22;35673;51.482;7.436;2022-11-15T16:08:03;14.60;73.70
49777;DHT22;35673;51.482;7.436;2022-11-15T16:10:33;14.60;73.80
49777;DHT22;35673;51.482;7.436;2022-11-15T16:13:02;14.60;73.90
49777;DHT22;35673;51.482;7.436;2022-11-15T16:15:30;14.70;74.10
49777;DHT22;35673;51.482;7.436;2022-11-15T16:17:59;14.60;74.30
49777;DHT22;35673;51.482;7.436;2022-11-15T16:20:35;14.60;74.40
49777;DHT22;35673;51.482;7.436;2022-11-15T16:23:04;14.60;74.50
49777;DHT22;35673;51.482;7.436;2022-11-15T16:25:32;14.60;74.50
49777;DHT22;35673;51.482;7.436;2022-11-15T16:27:59;14.60;74.70
49777;DHT22;35673;51.482;7.436;2022-11-15T16:30:25;14.60;74.80
49777;DHT22;35673;51.482;7.436;2022-11-15T16:33:00;14.60;74.90
49777;DHT22;35673;51.482;7.436;2022-11-15T16:35:26;14.50;75.00
49777;DHT22;35673;51.482;7.436;2022-11-15T16:37:52;14.50;75.10
49777;DHT22;35673;51.482;7.436;2022-11-15T16:40:30;14.50;75.20
49777;DHT22;35673;51.482;7.436;2022-11-15T16:42:57;14.50;75.30
49777;DHT22;35673;51.482;7.436;2022-11-15T16:45:24;14.60;75.30
49777;DHT22;35673;51.482;7.436;2022-11-15T16:47:50;14.60;75.30
49777;DHT22;35673;51.482;7.436;2022-11-15T16:50:22;14.60;75.30
49777;DHT22;35673;51.482;7.436;2022-11-15T16:52:53;14.60;75.40
49777;DHT22;35673;51.482;7.436;2022-11-15T16:55:20;14.60;75.40
49777;DHT22;35673;51.482;7.436;2022-11-15T16:57:46;14.60;75.60
49777;DHT22;35673;51.482;7.436;2022-11-15T17:00:12;14.50;75.90
49777;DHT22;35673;51.482;7.436;2022-11-15T17:02:44;14.50;75.80
49777;DHT22;35673;51.482;7.436;2022-11-15T17:05:11;14.50;76.00
49777;DHT22;35673;51.482;7.436;2022-11-15T17:07:37;14.50;76.10
49777;DHT22;35673;51.482;7.436;2022-11-15T17:10:03;14.40;76.20
49777;DHT22;35673;51.482;7.436;2022-11-15T17:12:29;14.50;76.30
49777;DHT22;35673;51.482;7.436;2022-11-15T17:14:55;14.50;76.30
49777;DHT22;35673;51.482;7.436;2022-11-15T17:17:21;14.50;76.30
49777;DHT22;35673;51.482;7.436;2022-11-15T17:19:47;14.50;76.30
49777;DHT22;35673;51.482;7.436;2022-11-15T17:22:12;14.50;76.50
49777;DHT22;35673;51.482;7.436;2022-11-15T17:24:38;14.40;76.50
49777;DHT22;35673;51.482;7.436;2022-11-15T17:27:04;14.40;76.70
49777;DHT22;35673;51.482;7.436;2022-11-15T17:29:29;14.40;76.70
49777;DHT22;35673;51.482;7.436;2022-11-15T17:31:55;14.40;76.80
49777;DHT22;35673;51.482;7.436;2022-11-15T17:34:20;14.40;76.90
49777;DHT22;35673;51.482;7.436;2022-11-15T17:36:47;14.40;77.00
49777;DHT22;35673;51.482;7.436;2022-11-15T17:39:13;14.40;77.00
49777;DHT22;35673;51.482;7.436;2022-11-15T17:41:38;14.40;77.10
49777;DHT22;35673;51.482;7.436;2022-11-15T17:44:04;14.40;77.30
49777;DHT22;35673;51.482;7.436;2022-11-15T17:46:30;14.30;77.40
49777;DHT22;35673;51.482;7.436;2022-11-15T17:48:56;14.30;77.40
49777;DHT22;35673;51.482;7.436;2022-11-15T17:51:22;14.40;77.60
49777;DHT22;35673;51.482;7.436;2022-11-15T17:53:48;14.30;77.60
49777;DHT22;35673;51.482;7.436;2022-11-15T17:56:17;14.30;77.70